sensor_id;sensor_type;location;lat;lon;timestamp;pressure;altitude;pressure_sealevel;temperature;humidity
36304;BME280;22335;49.800;8.596;2022-07-31T00:01:17;100634.59;;;29.27;27.05
36304;BME280;22335;49.800;8.596;2022-07-31T00:08:03;100681.94;;;29.57;27.28
36304;BME280;22335;49.800;8.596;2022-07-31T00:14:49;100678.34;;;29.53;27.85
36304;BME280;22335;49.800;8.596;2022-07-31T00:21:37;100677.94;;;29.47;27.48
36304;BME280;22335;49.800;8.596;2022-07-31T00:28:23;100615.31;;;29.07;27.83
36304;BME280;22335;49.800;8.596;2022-07-31T00:35:08;100679.56;;;29.45;27.55
36304;BME280;22335;49.800;8.596;2022-07-31T00:41:57;100672.38;;;29.36;27.55
36304;BME280;22335;49.800;8.596;2022-07-31T00:48:43;100672.75;;;29.38;27.95
36304;BME280;22335;49.800;8.596;2022-07-31T00:55:28;100671.56;;;29.32;28.64
36304;BME280;22335;49.800;8.596;2022-07-31T01:02:34;100599.25;;;28.93;28.41
36304;BME280;22335;49.800;8.596;2022-07-31T01:09:27;100660.31;;;29.25;28.74
36304;BME280;22335;49.800;8.596;2022-07-31T01:16:13;100658.34;;;29.15;28.86
36304;BME280;22335;49.800;8.596;2022-07-31T01:23:17;100660.00;;;29.05;28.60
36304;BME280;22335;49.800;8.596;2022-07-31T01:30:43;100657.16;;;28.98;29.30
36304;BME280;22335;49.800;8.596;2022-07-31T01:37:49;100650.31;;;28.92;29.12
36304;BME280;22335;49.800;8.596;2022-07-31T01:44:42;100646.31;;;28.82;29.56
36304;BME280;22335;49.800;8.596;2022-07-31T01:51:33;100649.19;;;28.68;29.91
36304;BME280;22335;49.800;8.596;2022-07-31T01:58:33;100648.38;;;28.57;29.52
36304;BME280;22335;49.800;8.596;2022-07-31T02:05:26;100609.00;;;28.24;29.83
36304;BME280;22335;49.800;8.596;2022-07-31T02:12:16;100647.19;;;28.47;29.62
36304;BME280;22335;49.800;8.596;2022-07-31T02:19:16;100591.28;;;28.13;29.55
36304;BME280;22335;49.800;8.596;2022-07-31T02:26:04;100637.09;;;28.39;29.66
36304;BME280;22335;49.800;8.596;2022-07-31T02:32:52;100638.75;;;28.47;29.96
36304;BME280;22335;49.800;8.596;2022-07-31T02:39:39;100632.69;;;28.48;29.39
36304;BME280;22335;49.800;8.596;2022-07-31T03:00:18;100628.69;;;28.28;29.70
36304;BME280;22335;49.800;8.596;2022-07-31T03:07:09;100629.47;;;28.28;29.65
36304;BME280;22335;49.800;8.596;2022-07-31T03:13:56;100625.84;;;28.21;30.21
36304;BME280;22335;49.800;8.596;2022-07-31T03:20:47;100613.81;;;28.06;30.32
36304;BME280;22335;49.800;8.596;2022-07-31T03:27:34;100618.59;;;27.98;30.19
36304;BME280;22335;49.800;8.596;2022-07-31T03:34:20;100612.97;;;27.91;30.69
36304;BME280;22335;49.800;8.596;2022-07-31T03:41:09;100610.53;;;27.79;31.22
36304;BME280;22335;49.800;8.596;2022-07-31T03:47:55;100616.13;;;27.75;31.31
36304;BME280;22335;49.800;8.596;2022-07-31T03:54:41;100632.16;;;27.64;31.10
36304;BME280;22335;49.800;8.596;2022-07-31T04:01:33;100631.72;;;27.55;31.43
36304;BME280;22335;49.800;8.596;2022-07-31T04:08:57;100633.75;;;27.54;31.57
36304;BME280;22335;49.800;8.596;2022-07-31T04:15:59;100636.97;;;27.60;31.31
36304;BME280;22335;49.800;8.596;2022-07-31T04:22:48;100633.31;;;27.56;31.81
36304;BME280;22335;49.800;8.596;2022-07-31T04:29:59;100650.16;;;27.49;31.30
36304;BME280;22335;49.800;8.596;2022-07-31T04:36:46;100638.47;;;27.36;31.88
36304;BME280;22335;49.800;8.596;2022-07-31T04:43:34;100637.31;;;27.48;31.46
36304;BME280;22335;49.800;8.596;2022-07-31T04:50:19;100642.84;;;27.26;31.52
36304;BME280;22335;49.800;8.596;2022-07-31T04:57:09;100655.69;;;27.24;32.32
36304;BME280;22335;49.800;8.596;2022-07-31T05:04:05;100640.84;;;27.23;32.16
36304;BME280;22335;49.800;8.596;2022-07-31T05:10:51;100642.88;;;27.33;32.15
36304;BME280;22335;49.800;8.596;2022-07-31T05:17:50;100645.69;;;27.37;32.35
36304;BME280;22335;49.800;8.596;2022-07-31T05:25:09;100632.94;;;27.57;31.91
36304;BME280;22335;49.800;8.596;2022-07-31T05:31:54;100642.16;;;27.51;32.81
36304;BME280;22335;49.800;8.596;2022-07-31T05:38:43;100593.50;;;27.25;33.03
36304;BME280;22335;49.800;8.596;2022-07-31T05:45:50;100630.50;;;27.52;33.07
36304;BME280;22335;49.800;8.596;2022-07-31T05:52:36;100646.56;;;27.48;32.98
36304;BME280;22335;49.800;8.596;2022-07-31T05:59:52;100643.75;;;27.52;33.35
36304;BME280;22335;49.800;8.596;2022-07-31T06:06:42;100642.16;;;27.51;33.57
36304;BME280;22335;49.800;8.596;2022-07-31T06:13:28;100644.19;;;27.57;33.51
36304;BME280;22335;49.800;8.596;2022-07-31T06:20:26;100589.88;;;27.28;33.44
36304;BME280;22335;49.800;8.596;2022-07-31T06:27:15;100636.19;;;27.63;33.49
36304;BME280;22335;49.800;8.596;2022-07-31T06:34:15;100653.03;;;27.59;33.42
36304;BME280;22335;49.800;8.596;2022-07-31T06:41:02;100662.25;;;27.60;33.90
36304;BME280;22335;49.800;8.596;2022-07-31T06:47:55;100654.63;;;27.57;34.45
36304;BME280;22335;49.800;8.596;2022-07-31T06:54:57;100660.25;;;27.57;34.03
36304;BME280;22335;49.800;8.596;2022-07-31T07:01:44;100617.94;;;27.14;34.23
36304;BME280;22335;49.800;8.596;2022-07-31T07:08:32;100660.09;;;27.25;34.19
36304;BME280;22335;49.800;8.596;2022-07-31T07:15:18;100666.00;;;27.09;34.07
36304;BME280;22335;49.800;8.596;2022-07-31T07:22:03;100658.00;;;27.11;33.79
36304;BME280;22335;49.800;8.596;2022-07-31T07:28:51;100581.34;;;26.41;34.45
36304;BME280;22335;49.800;8.596;2022-07-31T07:35:37;100652.63;;;26.84;34.45
36304;BME280;22335;49.800;8.596;2022-07-31T07:42:29;100643.47;;;26.95;34.55
36304;BME280;22335;49.800;8.596;2022-07-31T07:49:18;100636.75;;;27.10;34.78
36304;BME280;22335;49.800;8.596;2022-07-31T07:56:42;100638.50;;;27.40;34.76
36304;BME280;22335;49.800;8.596;2022-07-31T08:03:53;100627.34;;;27.65;34.30
36304;BME280;22335;49.800;8.596;2022-07-31T08:10:42;100503.91;;;26.95;34.36
36304;BME280;22335;49.800;8.596;2022-07-31T08:17:38;100633.00;;;27.75;33.62
36304;BME280;22335;49.800;8.596;2022-07-31T08:24:24;100627.78;;;27.77;33.66
36304;BME280;22335;49.800;8.596;2022-07-31T08:31:13;100617.38;;;27.81;33.48
36304;BME280;22335;49.800;8.596;2022-07-31T08:38:13;100610.59;;;27.97;33.88
36304;BME280;22335;49.800;8.596;2022-07-31T08:45:39;100615.00;;;28.19;33.09
36304;BME280;22335;49.800;8.596;2022-07-31T08:52:39;100604.94;;;28.36;32.94
36304;BME280;22335;49.800;8.596;2022-07-31T08:59:35;100579.22;;;28.38;32.04
36304;BME280;22335;49.800;8.596;2022-07-31T09:06:22;100602.16;;;28.65;32.15
36304;BME280;22335;49.800;8.596;2022-07-31T09:13:14;100582.38;;;28.83;31.97
36304;BME280;22335;49.800;8.596;2022-07-31T09:20:04;100572.69;;;28.94;31.70
36304;BME280;22335;49.800;8.596;2022-07-31T09:27:02;100574.25;;;29.13;31.59
36304;BME280;22335;49.800;8.596;2022-07-31T09:33:52;100562.88;;;29.35;31.56
36304;BME280;22335;49.800;8.596;2022-07-31T09:41:08;100538.66;;;29.45;31.66
36304;BME280;22335;49.800;8.596;2022-07-31T09:48:26;100535.75;;;29.62;31.03
36304;BME280;22335;49.800;8.596;2022-07-31T09:55:15;100546.53;;;29.78;31.31
36304;BME280;22335;49.800;8.596;2022-07-31T10:02:04;100535.59;;;29.84;31.03
36304;BME280;22335;49.800;8.596;2022-07-31T10:08:52;100544.28;;;30.04;30.78
36304;BME280;22335;49.800;8.596;2022-07-31T10:15:59;100534.50;;;30.23;30.72
36304;BME280;22335;49.800;8.596;2022-07-31T10:23:01;100523.00;;;30.41;30.11
36304;BME280;22335;49.800;8.596;2022-07-31T10:29:51;100516.78;;;30.56;30.11
36304;BME280;22335;49.800;8.596;2022-07-31T10:36:40;100506.56;;;30.70;30.52
36304;BME280;22335;49.800;8.596;2022-07-31T10:43:47;100495.56;;;30.83;29.87
36304;BME280;22335;49.800;8.596;2022-07-31T10:50:41;100494.03;;;31.05;29.52
36304;BME280;22335;49.800;8.596;2022-07-31T10:57:38;100475.94;;;31.30;29.88
36304;BME280;22335;49.800;8.596;2022-07-31T11:05:11;100423.25;;;31.43;29.40
36304;BME280;22335;49.800;8.596;2022-07-31T11:12:22;100459.25;;;31.89;28.43
36304;BME280;22335;49.800;8.596;2022-07-31T11:19:36;100442.28;;;31.89;28.55
36304;BME280;22335;49.800;8.596;2022-07-31T11:26:22;100357.84;;;31.64;28.50
36304;BME280;22335;49.800;8.596;2022-07-31T11:33:32;100365.56;;;32.07;27.88
36304;BME280;22335;49.800;8.596;2022-07-31T11:40:26;100420.81;;;32.92;27.94
36304;BME280;22335;49.800;8.596;2022-07-31T11:47:13;100435.94;;;33.38;27.69
36304;BME280;22335;49.800;8.596;2022-07-31T11:54:22;100415.97;;;33.61;27.43
36304;BME280;22335;49.800;8.596;2022-07-31T12:01:11;100401.75;;;33.78;26.76
36304;BME280;22335;49.800;8.596;2022-07-31T12:07:56;100399.28;;;33.80;27.06
36304;BME280;22335;49.800;8.596;2022-07-31T12:14:42;100399.44;;;33.72;27.06
36304;BME280;22335;49.800;8.596;2022-07-31T12:21:34;100371.28;;;33.65;26.90
36304;BME280;22335;49.800;8.596;2022-07-31T12:28:21;100354.78;;;33.60;27.32
36304;BME280;22335;49.800;8.596;2022-07-31T12:35:07;100344.94;;;33.65;27.07
36304;BME280;22335;49.800;8.596;2022-07-31T12:41:56;100328.34;;;33.80;27.05
36304;BME280;22335;49.800;8.596;2022-07-31T12:48:41;100323.13;;;34.07;26.37
36304;BME280;22335;49.800;8.596;2022-07-31T12:55:28;100317.81;;;34.22;26.58
36304;BME280;22335;49.800;8.596;2022-07-31T13:02:17;100315.69;;;34.39;26.14
36304;BME280;22335;49.800;8.596;2022-07-31T13:09:03;100303.56;;;34.77;25.75
36304;BME280;22335;49.800;8.596;2022-07-31T13:15:49;100298.88;;;35.08;25.71
36304;BME280;22335;49.800;8.596;2022-07-31T13:22:37;100280.16;;;35.33;24.66
36304;BME280;22335;49.800;8.596;2022-07-31T13:29:23;100274.91;;;35.44;25.13
36304;BME280;22335;49.800;8.596;2022-07-31T13:36:09;100233.34;;;35.25;24.84
36304;BME280;22335;49.800;8.596;2022-07-31T13:42:57;100248.41;;;35.69;24.18
36304;BME280;22335;49.800;8.596;2022-07-31T13:49:42;100251.66;;;35.81;23.81
36304;BME280;22335;49.800;8.596;2022-07-31T13:56:28;100252.91;;;35.79;23.59
36304;BME280;22335;49.800;8.596;2022-07-31T14:03:26;100247.84;;;35.74;22.80
36304;BME280;22335;49.800;8.596;2022-07-31T14:10:14;100257.94;;;35.75;22.85
36304;BME280;22335;49.800;8.596;2022-07-31T14:17:01;100246.69;;;35.72;22.85
36304;BME280;22335;49.800;8.596;2022-07-31T14:23:49;100217.84;;;35.61;22.33
36304;BME280;22335;49.800;8.596;2022-07-31T14:30:36;100222.34;;;35.71;22.19
36304;BME280;22335;49.800;8.596;2022-07-31T14:37:27;100231.53;;;35.75;22.23
36304;BME280;22335;49.800;8.596;2022-07-31T14:44:15;100219.22;;;35.78;22.14
36304;BME280;22335;49.800;8.596;2022-07-31T14:51:15;100219.81;;;35.73;22.01
36304;BME280;22335;49.800;8.596;2022-07-31T14:58:01;100218.44;;;35.77;21.80
36304;BME280;22335;49.800;8.596;2022-07-31T15:04:50;100220.16;;;35.75;21.84
36304;BME280;22335;49.800;8.596;2022-07-31T15:11:36;100212.88;;;35.74;21.78
36304;BME280;22335;49.800;8.596;2022-07-31T15:18:41;100226.25;;;35.64;21.92
36304;BME280;22335;49.800;8.596;2022-07-31T15:25:34;100210.78;;;35.65;22.31
36304;BME280;22335;49.800;8.596;2022-07-31T15:32:20;100215.47;;;35.81;22.27
36304;BME280;22335;49.800;8.596;2022-07-31T15:39:07;100206.03;;;35.93;22.21
36304;BME280;22335;49.800;8.596;2022-07-31T15:45:57;100206.03;;;35.93;22.20
36304;BME280;22335;49.800;8.596;2022-07-31T15:52:49;100144.28;;;35.50;21.78
36304;BME280;22335;49.800;8.596;2022-07-31T15:59:35;100205.75;;;36.00;22.07
36304;BME280;22335;49.800;8.596;2022-07-31T16:06:23;100187.31;;;36.05;21.99
36304;BME280;22335;49.800;8.596;2022-07-31T16:13:13;100195.63;;;35.99;22.33
36304;BME280;22335;49.800;8.596;2022-07-31T16:19:58;100192.06;;;36.08;22.15
36304;BME280;22335;49.800;8.596;2022-07-31T16:26:47;100174.38;;;36.13;22.09
36304;BME280;22335;49.800;8.596;2022-07-31T16:33:32;100176.91;;;36.11;22.69
36304;BME280;22335;49.800;8.596;2022-07-31T16:40:18;100168.03;;;36.09;22.51
36304;BME280;22335;49.800;8.596;2022-07-31T16:47:12;100142.78;;;35.98;22.71
36304;BME280;22335;49.800;8.596;2022-07-31T16:54:18;100161.84;;;36.11;23.32
36304;BME280;22335;49.800;8.596;2022-07-31T17:01:03;100173.38;;;36.07;23.28
36304;BME280;22335;49.800;8.596;2022-07-31T17:08:11;100173.66;;;36.00;22.95
36304;BME280;22335;49.800;8.596;2022-07-31T17:14:57;100176.94;;;35.98;23.16
36304;BME280;22335;49.800;8.596;2022-07-31T17:21:43;100170.94;;;35.96;23.02
36304;BME280;22335;49.800;8.596;2022-07-31T17:28:33;100170.28;;;35.92;23.71
36304;BME280;22335;49.800;8.596;2022-07-31T17:35:18;100176.16;;;35.98;23.45
36304;BME280;22335;49.800;8.596;2022-07-31T17:42:04;100169.69;;;35.97;23.07
36304;BME280;22335;49.800;8.596;2022-07-31T17:48:53;100130.81;;;35.72;23.78
36304;BME280;22335;49.800;8.596;2022-07-31T17:55:39;100182.19;;;36.00;23.20
36304;BME280;22335;49.800;8.596;2022-07-31T18:02:25;100192.13;;;35.95;23.49
36304;BME280;22335;49.800;8.596;2022-07-31T18:09:13;100189.41;;;35.92;23.81
36304;BME280;22335;49.800;8.596;2022-07-31T18:16:01;100197.66;;;35.90;23.43
36304;BME280;22335;49.800;8.596;2022-07-31T18:22:47;100205.72;;;35.91;23.79
36304;BME280;22335;49.800;8.596;2022-07-31T18:29:35;100207.44;;;35.89;23.62
36304;BME280;22335;49.800;8.596;2022-07-31T18:36:21;100218.03;;;35.88;23.58
36304;BME280;22335;49.800;8.596;2022-07-31T18:43:07;100224.19;;;35.87;23.45
36304;BME280;22335;49.800;8.596;2022-07-31T18:49:56;100217.38;;;35.84;23.85
36304;BME280;22335;49.800;8.596;2022-07-31T18:57:02;100227.09;;;35.74;23.89
36304;BME280;22335;49.800;8.596;2022-07-31T19:03:48;100234.25;;;35.56;24.46
36304;BME280;22335;49.800;8.596;2022-07-31T19:10:38;100229.75;;;35.46;24.17
36304;BME280;22335;49.800;8.596;2022-07-31T19:17:24;100245.72;;;35.31;24.76
36304;BME280;22335;49.800;8.596;2022-07-31T19:24:25;100260.19;;;35.24;24.77
36304;BME280;22335;49.800;8.596;2022-07-31T19:31:13;100253.50;;;35.18;25.13
36304;BME280;22335;49.800;8.596;2022-07-31T19:38:00;100267.38;;;35.16;24.70
36304;BME280;22335;49.800;8.596;2022-07-31T19:44:47;100280.00;;;35.15;24.90
36304;BME280;22335;49.800;8.596;2022-07-31T19:51:35;100271.25;;;35.09;25.22
36304;BME280;22335;49.800;8.596;2022-07-31T19:58:20;100294.81;;;35.09;25.59
36304;BME280;22335;49.800;8.596;2022-07-31T20:05:07;100299.47;;;35.03;25.64
36304;BME280;22335;49.800;8.596;2022-07-31T20:11:56;100294.00;;;34.83;26.28
36304;BME280;22335;49.800;8.596;2022-07-31T20:18:42;100304.94;;;34.72;26.57
36304;BME280;22335;49.800;8.596;2022-07-31T20:25:28;100311.06;;;34.58;26.76
36304;BME280;22335;49.800;8.596;2022-07-31T20:32:17;100296.16;;;34.41;26.89
36304;BME280;22335;49.800;8.596;2022-07-31T20:39:04;100300.56;;;34.29;26.93
36304;BME280;22335;49.800;8.596;2022-07-31T20:45:50;100306.69;;;34.28;27.16
36304;BME280;22335;49.800;8.596;2022-07-31T20:52:40;100303.53;;;34.26;27.36
36304;BME280;22335;49.800;8.596;2022-07-31T20:59:29;100296.69;;;34.10;27.42
36304;BME280;22335;49.800;8.596;2022-07-31T21:06:14;100313.63;;;34.27;27.47
36304;BME280;22335;49.800;8.596;2022-07-31T21:13:04;100301.59;;;34.23;27.55
36304;BME280;22335;49.800;8.596;2022-07-31T21:19:49;100276.16;;;33.90;27.29
36304;BME280;22335;49.800;8.596;2022-07-31T21:26:35;100262.59;;;33.68;27.31
36304;BME280;22335;49.800;8.596;2022-07-31T21:33:25;100324.19;;;33.97;27.47
36304;BME280;22335;49.800;8.596;2022-07-31T21:40:14;100254.06;;;33.39;27.88
36304;BME280;22335;49.800;8.596;2022-07-31T21:47:00;100344.16;;;33.93;28.01
36304;BME280;22335;49.800;8.596;2022-07-31T21:53:50;100337.00;;;33.89;28.26
36304;BME280;22335;49.800;8.596;2022-07-31T22:00:36;100351.19;;;33.89;27.91
36304;BME280;22335;49.800;8.596;2022-07-31T22:07:22;100311.03;;;33.45;28.50
36304;BME280;22335;49.800;8.596;2022-07-31T22:14:19;100364.88;;;33.78;27.92
36304;BME280;22335;49.800;8.596;2022-07-31T22:21:07;100335.03;;;33.08;28.65
36304;BME280;22335;49.800;8.596;2022-07-31T22:27:53;100377.50;;;33.11;29.06
36304;BME280;22335;49.800;8.596;2022-07-31T22:34:41;100378.63;;;32.97;29.70
36304;BME280;22335;49.800;8.596;2022-07-31T22:41:27;100389.09;;;32.80;29.44
36304;BME280;22335;49.800;8.596;2022-07-31T22:48:15;100397.91;;;32.66;30.01
36304;BME280;22335;49.800;8.596;2022-07-31T22:55:05;100360.63;;;32.31;30.25
36304;BME280;22335;49.800;8.596;2022-07-31T23:01:51;100411.00;;;32.40;30.22
36304;BME280;22335;49.800;8.596;2022-07-31T23:08:36;100417.72;;;32.26;30.52
36304;BME280;22335;49.800;8.596;2022-07-31T23:15:25;100423.16;;;32.17;30.44
36304;BME280;22335;49.800;8.596;2022-07-31T23:22:10;100395.88;;;31.83;30.40
36304;BME280;22335;49.800;8.596;2022-07-31T23:28:56;100428.38;;;31.99;30.95
36304;BME280;22335;49.800;8.596;2022-07-31T23:35:44;100431.38;;;31.88;31.17
36304;BME280;22335;49.800;8.596;2022-07-31T23:42:30;100435.00;;;31.88;31.12
36304;BME280;22335;49.800;8.596;2022-07-31T23:49:21;100435.81;;;31.89;31.44
36304;BME280;22335;49.800;8.596;2022-07-31T23:56:10;100374.22;;;31.53;31.62
